ADDS METAR Data INFO
IDs: Format: Raw Decoded Include TAF

Data at: 1012 UTC 22 May 2018

K54J 220955Z AUTO 00000KT 10SM VCTS SCT021 SCT028 SCT042 21/21 A3001 RMK AO2 LTG DSNT SE AND S T02070205
K54J 220935Z AUTO 00000KT 10SM SCT042 21/21 A3001 RMK AO2 LTG DSNT SE T02100207
K54J 220915Z AUTO 00000KT 7SM SCT040 21/21 A3000 RMK AO2 LTG DSNT SE AND SW T02060205
K54J 220855Z AUTO 00000KT 10SM SCT023 SCT036 21/21 A3000 RMK AO2 LTG DSNT SE T02070205
K54J 220835Z AUTO 00000KT 5SM VCTS BR SCT002 SCT023 21/21 A3000 RMK AO2 LTG DSNT SW T02070205
K54J 220815Z AUTO 09003KT 7SM SCT028 21/21 A3000 RMK AO2 LTG DSNT S T02080206
K54J 220755Z AUTO 00000KT 10SM SCT026 21/21 A3000 RMK AO2 LTG DSNT S T02090206
K54J 220735Z AUTO 00000KT 10SM CLR 21/20 A3000 RMK AO2 T02060203
K54J 220715Z AUTO 00000KT 10SM SCT019 SCT026 21/21 A3000 RMK AO2 LTG DSNT S AND SW T02070205
K54J 220655Z AUTO 00000KT 10SM OVC019 21/21 A3001 RMK AO2 T02100205
K54J 220635Z AUTO 09003KT 10SM BKN019 BKN025 21/21 A3001 RMK AO2 T02100206
K54J 220615Z AUTO 00000KT 10SM SCT020 BKN025 21/21 A3001 RMK AO2 LTG DSNT S T02110206
K54J 220555Z AUTO 00000KT 10SM OVC020 21/21 A3001 RMK AO2 T02100205 10228 20206
K54J 220535Z AUTO 00000KT 10SM BKN022 BKN037 21/21 A3002 RMK AO2 T02100205
K54J 220515Z AUTO 00000KT 10SM SCT037 21/21 A3003 RMK AO2 T02100206
K54J 220455Z AUTO 00000KT 10SM CLR 21/21 A3003 RMK AO2 T02100207 402610195
K54J 220435Z AUTO 00000KT 10SM CLR 21/21 A3003 RMK AO2 T02100208
K54J 220415Z AUTO 00000KT 10SM CLR 21/21 A3003 RMK AO2 T02120210
K54J 220355Z AUTO 00000KT 10SM CLR 21/21 A3003 RMK AO2 LTG DSNT S T02120209
K54J 220335Z AUTO 00000KT 10SM CLR 21/21 A3003 RMK AO2 T02120210
K54J 220315Z AUTO 00000KT 10SM CLR 22/21 A3004 RMK AO2 T02160213
K54J 220255Z AUTO 13003KT 10SM CLR 22/22 A3004 RMK AO2 T02180216
K54J 220235Z AUTO 13004KT 10SM SCT070 22/22 A3003 RMK AO2 T02200217
K54J 220215Z AUTO 15003KT 10SM SCT070 22/22 A3003 RMK AO2 T02210218
K54J 220155Z AUTO 00000KT 10SM BKN060 22/22 A3003 RMK AO2 LTG DSNT W T02220218
K54J 220135Z AUTO 00000KT 10SM OVC050 23/22 A3002 RMK AO2 LTG DSNT W T02250218
K54J 220115Z AUTO 00000KT 10SM OVC046 22/22 A3002 RMK AO2 LTG DSNT W T02240219
K54J 220055Z AUTO 11003KT 10SM -RA SCT016 SCT022 BKN042 22/22 A3001 RMK AO2 T02230218
K54J 220035Z AUTO 10005KT 10SM SCT004 SCT010 BKN029 22/22 A3001 RMK AO2 T02230217
K54J 220015Z AUTO 08005KT 10SM SCT004 SCT010 OVC050 23/22 A3001 RMK AO2 T02260220
K54J 212355Z AUTO 05005KT 10SM SCT004 BKN050 23/22 A3000 RMK AO2 60046 T02280220 10255 20211
K54J 212335Z AUTO 06006KT 10SM SCT004 23/22 A3000 RMK AO2 T02300220
K54J 212315Z AUTO 07005KT 10SM CLR 23/22 A2999 RMK AO2 T02300221
K54J 212255Z AUTO 06003KT 10SM SCT045 23/22 A2999 RMK AO2 LTG DSNT E T02300219
K54J 212235Z AUTO 00000KT 10SM -DZ SCT045 SCT120 23/22 A3000 RMK AO2 LTG DSNT E T02290218
K54J 212215Z AUTO 07004KT 10SM DZ SCT043 SCT050 SCT120 23/22 A3000 RMK AO2 LTG DSNT E T02280219
K54J 212155Z AUTO 00000KT 10SM RA SCT038 BKN047 OVC060 23/22 A3000 RMK AO2 P0003 T02250215
K54J 212135Z AUTO 00000KT 10SM DZ SCT043 OVC050 22/21 A3000 RMK AO2 P0002 T02230213
K54J 212115Z AUTO 17003KT 10SM -RA SCT044 BKN050 OVC075 22/21 A3000 RMK AO2 LTG DSNT NW P0002 T02190213
K54J 212055Z AUTO 00000KT 7SM RA BKN075 OVC085 22/21 A3000 RMK AO2 LTG DSNT N P0010 60043 T02170214
K54J 212035Z AUTO 00000KT 5SM TSRA BKN065 OVC085 22/21 A3001 RMK AO2 LTG DSNT E P0007 T02160212
K54J 212015Z AUTO 00000KT 5SM VCTSRA SCT050 SCT075 OVC090 22/21 A3001 RMK AO2 LTG DSNT W AND NW P0003 T02150210
K54J 211955Z AUTO 00000KT 10SM -RA SCT055 SCT065 SCT120 21/21 A3002 RMK AO2 LTG DSNT N AND E P0002 T02120207
K54J 211935Z AUTO 00000KT 10SM RA SCT075 SCT090 SCT120 21/21 A3002 RMK AO2 LTG DSNT E THRU SW P0001 T02120208
K54J 211915Z AUTO 18003KT 10SM -VCTSRA SCT032 BKN070 OVC090 21/21 A3003 RMK AO2 LTG DSNT ALQS P0001 T02130209
K54J 211855Z AUTO 19003KT 5SM -TSRA SCT004 BKN065 OVC080 21/21 A3003 RMK AO2 LTG DSNT SE THRU NW P0031 T02110207
K54J 211835Z AUTO 19005G16KT 2SM +TSRA SCT004 BKN009 OVC022 22/21 A3003 RMK AO2 LTG DSNT ALQS P0015 T02200211
K54J 211815Z AUTO 17013KT 10SM VCTS SCT019 OVC027 25/21 A3003 RMK AO2 LTG DSNT S T02520213
K54J 211755Z AUTO 00000KT 10SM SCT023 SCT027 BKN050 25/22 A3003 RMK AO2 LTG DSNT S P0003 60003 T02510216 10261 20198
K54J 211735Z AUTO 00000KT 4SM -TSRA SCT021 BKN034 OVC070 24/22 A3003 RMK AO2 LTG DSNT SE AND S P0003 T02400215
K54J 211715Z AUTO 05003KT 10SM SCT019 BKN035 OVC048 26/21 A3005 RMK AO2 LTG DSNT SE AND SW T02580208
K54J 211655Z AUTO 12007KT 10SM BKN015 BKN020 OVC033 25/21 A3006 RMK AO2 T02480206
K54J 211635Z AUTO 10004KT 10SM OVC011 25/21 A3006 RMK AO2 LTG DSNT SE T02520210
K54J 211615Z AUTO 09007KT 10SM OVC009 24/21 A3007 RMK AO2 LTG DSNT SE T02380207
K54J 211555Z AUTO 11007KT 7SM OVC007 23/21 A3007 RMK AO2 T02260206
K54J 211535Z AUTO 09006KT 10SM OVC007 22/21 A3007 RMK AO2 T02230205
K54J 211515Z AUTO 10005KT 10SM OVC007 22/20 A3007 RMK AO2 T02220204
K54J 211455Z AUTO 09007KT 5SM BR OVC005 21/20 A3007 RMK AO2 T02130203
K54J 211435Z AUTO 09008KT 7SM OVC005 21/20 A3006 RMK AO2 LTG DSNT SE T02110202
K54J 211415Z AUTO 07007KT 10SM OVC005 21/20 A3006 RMK AO2 T02100200
K54J 211355Z AUTO 08006KT 10SM OVC005 21/20 A3006 RMK AO2 T02090200
K54J 211335Z AUTO 07007KT 10SM OVC005 21/20 A3005 RMK AO2 T02080199
K54J 211315Z AUTO 05008KT 10SM OVC005 21/20 A3005 RMK AO2 T02050197
K54J 211055Z AUTO 05008KT 10SM OVC005 20/19 A3003 RMK AO2 T01950190
K54J 211035Z AUTO 04006KT 5SM BR OVC005 20/19 A3003 RMK AO2 T01950190
K54J 211015Z AUTO 04006KT 5SM BR OVC005 20/19 A3004 RMK AO2 LTG DSNT E T01950190
K54J 210955Z AUTO 03007KT 5SM BR OVC005 20/19 A3004 RMK AO2 LTG DSNT SE T01950190
K54J 210935Z AUTO 04006KT 7SM OVC003 20/19 A3003 RMK AO2 LTG DSNT SE T01950190
K54J 210915Z AUTO 05007KT 7SM OVC005 20/19 A3004 RMK AO2 LTG DSNT E AND SE T01960190
K54J 210855Z AUTO 06007KT 7SM OVC007 20/19 A3004 RMK AO2 LTG DSNT SE T01970190
K54J 210835Z AUTO 04005KT 10SM BKN009 OVC024 20/19 A3005 RMK AO2 LTG DSNT SE T01970189
K54J 210815Z AUTO 05005KT 10SM SCT009 BKN024 20/19 A3004 RMK AO2 LTG DSNT SE T01960188
K54J 210755Z AUTO 04006KT 10SM SCT026 20/19 A3004 RMK AO2 T01980187
K54J 210735Z AUTO 04005KT 10SM SCT026 20/19 A3005 RMK AO2 LTG DSNT SE T02000188
K54J 210715Z AUTO 05006KT 10SM CLR 20/19 A3005 RMK AO2 LTG DSNT SE T02000188
K54J 210655Z AUTO 05007KT 10SM CLR 20/19 A3006 RMK AO2 T02000190
K54J 210635Z AUTO 07006KT 10SM CLR 20/19 A3006 RMK AO2 T02020190
K54J 210615Z AUTO 08006KT 10SM CLR 20/19 A3007 RMK AO2 LTG DSNT SE AND SW T02010192
K54J 210555Z AUTO 08005KT 10SM CLR 20/19 A3007 RMK AO2 T02020191 10223 20202
K54J 210535Z AUTO 09005KT 10SM CLR 21/19 A3008 RMK AO2 LTG DSNT SW T02050193
K54J 210515Z AUTO 07006KT 10SM CLR 21/19 A3010 RMK AO2 LTG DSNT SW T02060193
K54J 210455Z AUTO 09005KT 10SM VCTS SCT030 21/20 A3010 RMK AO2 LTG DSNT SW T02080195 403140208
K54J 210435Z AUTO 09005KT 10SM OVC030 21/20 A3011 RMK AO2 LTG DSNT SE T02100198
K54J 210415Z AUTO 09005KT 10SM BKN030 OVC040 21/20 A3012 RMK AO2 T02110201
K54J 210355Z AUTO 07006KT 10SM SCT010 BKN024 OVC029 21/20 A3012 RMK AO2 T02130204
K54J 210335Z AUTO 03003KT 10SM SCT012 BKN022 21/20 A3012 RMK AO2 T02130203
K54J 210315Z AUTO 04003KT 10SM SCT020 22/20 A3011 RMK AO2 T02150201
K54J 210255Z AUTO 07005KT 10SM SCT020 21/20 A3010 RMK AO2 T02140203
K54J 210235Z AUTO 09004KT 10SM CLR 21/21 A3008 RMK AO2 T02140210
K54J 210215Z AUTO 12003KT 10SM CLR 22/21 A3007 RMK AO2 T02150211
K54J 210155Z AUTO 00000KT 10SM CLR 21/21 A3006 RMK AO2 T02130208
K54J 210135Z AUTO 00000KT 10SM SCT026 22/20 A3006 RMK AO2 T02160204
K54J 210115Z AUTO 10004KT 10SM VCTS BKN026 22/21 A3005 RMK AO2 LTG DSNT SW T02200210
K54J 210055Z AUTO 00000KT 10SM BKN026 22/21 A3006 RMK AO2 T02200211
K54J 210035Z AUTO 00000KT 10SM SCT026 22/21 A3007 RMK AO2 LTG DSNT W T02210211
K54J 210015Z AUTO 10003KT 10SM CLR 22/21 A3007 RMK AO2 LTG DSNT W T02220212
K54J 202355Z AUTO 15003KT 10SM CLR 22/21 A3005 RMK AO2 LTG DSNT W AND NW P0002 60023 T02190211 10314 20217
K54J 202335Z AUTO 00000KT 10SM VCTS SCT110 22/21 A3005 RMK AO2 LTG DSNT S THRU NW P0002 T02190212
K54J 202315Z AUTO 00000KT 10SM VCTSRA SCT032 SCT043 BKN110 22/21 A3003 RMK AO2 LTG DSNT S THRU NW P0002 T02230207
K54J 202255Z AUTO 00000KT 1 1/4SM +TSRA SCT033 BKN042 OVC065 22/21 A3005 RMK AO2 LTG DSNT ALQS P0021 T02200211
K54J 202235Z AUTO 10004KT 4SM TSRA BKN039 BKN048 OVC055 23/21 A3007 RMK AO2 LTG DSNT ALQS P0008 T02260212
K54J 202215Z AUTO 00000KT 7SM -TSRA SCT029 OVC041 23/20 A3005 RMK AO2 LTG DSNT SE THRU SW T02330203